sensor_id;sensor_type;location;lat;lon;timestamp;temperature;humidity
75985;DHT22;65033;44.660;37.758;2023-07-20T00:00:16;21.21;62.98
75985;DHT22;65033;44.660;37.758;2023-07-20T00:01:21;21.23;62.99
75985;DHT22;65033;44.660;37.758;2023-07-20T00:02:25;21.24;63.01
75985;DHT22;65033;44.660;37.758;2023-07-20T00:03:28;21.25;63.23
75985;DHT22;65033;44.660;37.758;2023-07-20T00:04:32;21.27;62.92
75985;DHT22;65033;44.660;37.758;2023-07-20T00:05:35;21.28;62.47
75985;DHT22;65033;44.660;37.758;2023-07-20T00:06:38;21.31;62.41
75985;DHT22;65033;44.660;37.758;2023-07-20T00:07:43;21.32;62.56
75985;DHT22;65033;44.660;37.758;2023-07-20T00:08:46;21.33;62.44
75985;DHT22;65033;44.660;37.758;2023-07-20T00:09:50;21.34;62.15
75985;DHT22;65033;44.660;37.758;2023-07-20T00:10:53;21.31;62.33
75985;DHT22;65033;44.660;37.758;2023-07-20T00:11:56;21.29;62.51
75985;DHT22;65033;44.660;37.758;2023-07-20T00:13:01;21.25;62.46
75985;DHT22;65033;44.660;37.758;2023-07-20T00:14:05;21.21;62.51
75985;DHT22;65033;44.660;37.758;2023-07-20T00:15:09;21.19;62.63
75985;DHT22;65033;44.660;37.758;2023-07-20T00:16:12;21.16;62.66
75985;DHT22;65033;44.660;37.758;2023-07-20T00:17:16;21.16;62.27
75985;DHT22;65033;44.660;37.758;2023-07-20T00:18:19;21.16;62.50
75985;DHT22;65033;44.660;37.758;2023-07-20T00:19:24;21.18;61.96
75985;DHT22;65033;44.660;37.758;2023-07-20T00:20:28;21.21;61.66
75985;DHT22;65033;44.660;37.758;2023-07-20T00:21:31;21.24;61.24
75985;DHT22;65033;44.660;37.758;2023-07-20T00:22:34;21.28;61.18
75985;DHT22;65033;44.660;37.758;2023-07-20T00:23:38;21.28;61.44
75985;DHT22;65033;44.660;37.758;2023-07-20T00:24:41;21.30;61.27
75985;DHT22;65033;44.660;37.758;2023-07-20T00:25:44;21.30;60.88
75985;DHT22;65033;44.660;37.758;2023-07-20T00:26:50;21.30;61.04
75985;DHT22;65033;44.660;37.758;2023-07-20T00:27:53;21.24;60.96
75985;DHT22;65033;44.660;37.758;2023-07-20T00:28:58;21.25;61.13
75985;DHT22;65033;44.660;37.758;2023-07-20T00:30:01;21.23;61.29
75985;DHT22;65033;44.660;37.758;2023-07-20T00:31:06;21.19;61.21
75985;DHT22;65033;44.660;37.758;2023-07-20T00:32:12;21.16;61.09
75985;DHT22;65033;44.660;37.758;2023-07-20T00:33:17;21.15;61.17
75985;DHT22;65033;44.660;37.758;2023-07-20T00:34:21;21.11;61.40
75985;DHT22;65033;44.660;37.758;2023-07-20T00:35:24;21.09;61.49
75985;DHT22;65033;44.660;37.758;2023-07-20T00:36:27;21.08;61.26
75985;DHT22;65033;44.660;37.758;2023-07-20T00:37:30;21.06;61.29
75985;DHT22;65033;44.660;37.758;2023-07-20T00:38:34;21.04;61.26
75985;DHT22;65033;44.660;37.758;2023-07-20T00:39:38;21.03;60.99
75985;DHT22;65033;44.660;37.758;2023-07-20T00:40:41;21.04;60.92
75985;DHT22;65033;44.660;37.758;2023-07-20T00:41:46;21.05;60.89
75985;DHT22;65033;44.660;37.758;2023-07-20T00:42:49;21.07;60.51
75985;DHT22;65033;44.660;37.758;2023-07-20T00:43:59;21.08;60.43
75985;DHT22;65033;44.660;37.758;2023-07-20T00:45:03;21.09;60.42
75985;DHT22;65033;44.660;37.758;2023-07-20T00:46:07;21.13;60.20
75985;DHT22;65033;44.660;37.758;2023-07-20T00:47:11;21.15;59.98
75985;DHT22;65033;44.660;37.758;2023-07-20T00:48:15;21.15;60.09
75985;DHT22;65033;44.660;37.758;2023-07-20T00:49:18;21.17;59.94
75985;DHT22;65033;44.660;37.758;2023-07-20T00:50:24;21.17;59.90
75985;DHT22;65033;44.660;37.758;2023-07-20T00:51:29;21.15;59.96
75985;DHT22;65033;44.660;37.758;2023-07-20T00:52:33;21.15;59.92
75985;DHT22;65033;44.660;37.758;2023-07-20T00:53:36;21.14;59.96
75985;DHT22;65033;44.660;37.758;2023-07-20T00:54:40;21.15;59.64
75985;DHT22;65033;44.660;37.758;2023-07-20T00:55:44;21.17;59.84
75985;DHT22;65033;44.660;37.758;2023-07-20T00:56:47;21.17;59.82
75985;DHT22;65033;44.660;37.758;2023-07-20T00:57:51;21.18;59.35
75985;DHT22;65033;44.660;37.758;2023-07-20T00:58:55;21.20;59.22
75985;DHT22;65033;44.660;37.758;2023-07-20T01:00:00;21.22;59.30
75985;DHT22;65033;44.660;37.758;2023-07-20T01:01:04;21.25;59.10
75985;DHT22;65033;44.660;37.758;2023-07-20T01:02:09;21.25;58.86
75985;DHT22;65033;44.660;37.758;2023-07-20T01:03:12;21.27;59.08
75985;DHT22;65033;44.660;37.758;2023-07-20T01:04:16;21.24;59.35
75985;DHT22;65033;44.660;37.758;2023-07-20T01:05:20;21.20;59.30
75985;DHT22;65033;44.660;37.758;2023-07-20T01:06:29;21.17;59.59
75985;DHT22;65033;44.660;37.758;2023-07-20T01:07:46;21.14;59.59
75985;DHT22;65033;44.660;37.758;2023-07-20T01:08:57;21.10;59.54
75985;DHT22;65033;44.660;37.758;2023-07-20T01:10:05;21.09;59.48
75985;DHT22;65033;44.660;37.758;2023-07-20T01:11:16;21.09;59.47
75985;DHT22;65033;44.660;37.758;2023-07-20T01:12:26;21.08;59.57
75985;DHT22;65033;44.660;37.758;2023-07-20T01:13:30;21.07;59.29
75985;DHT22;65033;44.660;37.758;2023-07-20T01:14:34;21.11;59.75
75985;DHT22;65033;44.660;37.758;2023-07-20T01:15:39;21.14;59.22
75985;DHT22;65033;44.660;37.758;2023-07-20T01:16:42;21.15;59.41
75985;DHT22;65033;44.660;37.758;2023-07-20T01:17:46;21.16;59.11
75985;DHT22;65033;44.660;37.758;2023-07-20T01:18:50;21.14;59.25
75985;DHT22;65033;44.660;37.758;2023-07-20T01:19:54;21.14;58.91
75985;DHT22;65033;44.660;37.758;2023-07-20T01:21:00;21.16;58.93
75985;DHT22;65033;44.660;37.758;2023-07-20T01:22:24;21.18;58.76
75985;DHT22;65033;44.660;37.758;2023-07-20T01:24:01;21.19;58.61
75985;DHT22;65033;44.660;37.758;2023-07-20T01:25:22;21.23;59.07
75985;DHT22;65033;44.660;37.758;2023-07-20T01:26:46;21.27;58.69
75985;DHT22;65033;44.660;37.758;2023-07-20T01:29:46;21.36;58.05
75985;DHT22;65033;44.660;37.758;2023-07-20T01:32:09;21.46;57.94
75985;DHT22;65033;44.660;37.758;2023-07-20T01:33:13;21.46;57.86
75985;DHT22;65033;44.660;37.758;2023-07-20T01:34:17;21.47;57.56
75985;DHT22;65033;44.660;37.758;2023-07-20T01:35:24;21.45;58.09
75985;DHT22;65033;44.660;37.758;2023-07-20T01:36:30;21.43;58.21
75985;DHT22;65033;44.660;37.758;2023-07-20T01:37:34;21.42;57.95
75985;DHT22;65033;44.660;37.758;2023-07-20T01:38:39;21.43;57.82
75985;DHT22;65033;44.660;37.758;2023-07-20T01:39:42;21.43;58.13
75985;DHT22;65033;44.660;37.758;2023-07-20T01:40:46;21.42;57.75
75985;DHT22;65033;44.660;37.758;2023-07-20T01:41:49;21.37;57.96
75985;DHT22;65033;44.660;37.758;2023-07-20T01:42:53;21.32;57.98
75985;DHT22;65033;44.660;37.758;2023-07-20T01:43:57;21.29;57.85
75985;DHT22;65033;44.660;37.758;2023-07-20T01:45:02;21.21;58.35
75985;DHT22;65033;44.660;37.758;2023-07-20T01:46:06;21.15;58.96
75985;DHT22;65033;44.660;37.758;2023-07-20T01:47:11;21.08;59.35
75985;DHT22;65033;44.660;37.758;2023-07-20T01:48:14;21.04;59.21
75985;DHT22;65033;44.660;37.758;2023-07-20T01:49:18;20.98;59.64
75985;DHT22;65033;44.660;37.758;2023-07-20T01:50:21;20.95;59.78
75985;DHT22;65033;44.660;37.758;2023-07-20T01:51:27;20.91;60.02
75985;DHT22;65033;44.660;37.758;2023-07-20T01:52:30;20.91;59.64
75985;DHT22;65033;44.660;37.758;2023-07-20T01:53:34;20.90;59.94
75985;DHT22;65033;44.660;37.758;2023-07-20T01:54:37;20.89;59.64
75985;DHT22;65033;44.660;37.758;2023-07-20T01:55:40;20.89;59.77
75985;DHT22;65033;44.660;37.758;2023-07-20T01:56:44;20.91;59.64
75985;DHT22;65033;44.660;37.758;2023-07-20T01:57:47;20.92;59.35
75985;DHT22;65033;44.660;37.758;2023-07-20T01:58:50;20.94;59.44
75985;DHT22;65033;44.660;37.758;2023-07-20T01:59:54;20.96;59.44
75985;DHT22;65033;44.660;37.758;2023-07-20T02:00:57;20.96;59.48
75985;DHT22;65033;44.660;37.758;2023-07-20T02:02:02;20.98;59.54
75985;DHT22;65033;44.660;37.758;2023-07-20T02:03:06;21.01;59.18
75985;DHT22;65033;44.660;37.758;2023-07-20T02:04:14;21.05;59.16
75985;DHT22;65033;44.660;37.758;2023-07-20T02:05:17;21.10;58.74
75985;DHT22;65033;44.660;37.758;2023-07-20T02:06:21;21.15;58.55
75985;DHT22;65033;44.660;37.758;2023-07-20T02:07:24;21.16;58.84
75985;DHT22;65033;44.660;37.758;2023-07-20T02:08:27;21.18;58.65
75985;DHT22;65033;44.660;37.758;2023-07-20T02:09:32;21.19;58.53
75985;DHT22;65033;44.660;37.758;2023-07-20T02:10:35;21.21;58.41
75985;DHT22;65033;44.660;37.758;2023-07-20T02:11:39;21.22;58.55
75985;DHT22;65033;44.660;37.758;2023-07-20T02:12:42;21.21;58.48
75985;DHT22;65033;44.660;37.758;2023-07-20T02:13:45;21.20;58.58
75985;DHT22;65033;44.660;37.758;2023-07-20T02:14:49;21.18;58.67
75985;DHT22;65033;44.660;37.758;2023-07-20T02:15:54;21.16;58.77
75985;DHT22;65033;44.660;37.758;2023-07-20T02:16:57;21.14;58.99
75985;DHT22;65033;44.660;37.758;2023-07-20T02:18:03;21.10;58.88
75985;DHT22;65033;44.660;37.758;2023-07-20T02:19:10;21.13;58.94
75985;DHT22;65033;44.660;37.758;2023-07-20T02:20:14;21.13;59.33
75985;DHT22;65033;44.660;37.758;2023-07-20T02:21:18;21.16;58.95
75985;DHT22;65033;44.660;37.758;2023-07-20T02:22:21;21.20;58.50
75985;DHT22;65033;44.660;37.758;2023-07-20T02:23:24;21.25;57.99
75985;DHT22;65033;44.660;37.758;2023-07-20T02:24:28;21.31;58.08
75985;DHT22;65033;44.660;37.758;2023-07-20T02:25:31;21.34;58.20
75985;DHT22;65033;44.660;37.758;2023-07-20T02:26:35;21.31;58.25
75985;DHT22;65033;44.660;37.758;2023-07-20T02:27:38;21.35;58.08
75985;DHT22;65033;44.660;37.758;2023-07-20T02:28:42;21.39;57.94
75985;DHT22;65033;44.660;37.758;2023-07-20T02:29:47;21.40;57.75
75985;DHT22;65033;44.660;37.758;2023-07-20T02:30:51;21.45;57.77
75985;DHT22;65033;44.660;37.758;2023-07-20T02:31:54;21.49;57.42
75985;DHT22;65033;44.660;37.758;2023-07-20T02:33:00;21.54;57.53
75985;DHT22;65033;44.660;37.758;2023-07-20T02:34:04;21.58;57.50
75985;DHT22;65033;44.660;37.758;2023-07-20T02:35:09;21.61;57.40
75985;DHT22;65033;44.660;37.758;2023-07-20T02:36:12;21.62;57.36
75985;DHT22;65033;44.660;37.758;2023-07-20T02:37:16;21.62;57.51
75985;DHT22;65033;44.660;37.758;2023-07-20T02:38:19;21.57;57.95
75985;DHT22;65033;44.660;37.758;2023-07-20T02:39:23;21.50;57.58
75985;DHT22;65033;44.660;37.758;2023-07-20T02:40:26;21.42;58.35
75985;DHT22;65033;44.660;37.758;2023-07-20T02:41:30;21.40;58.36
75985;DHT22;65033;44.660;37.758;2023-07-20T02:42:34;21.42;57.96
75985;DHT22;65033;44.660;37.758;2023-07-20T02:43:37;21.43;58.06
75985;DHT22;65033;44.660;37.758;2023-07-20T02:44:41;21.43;57.84
75985;DHT22;65033;44.660;37.758;2023-07-20T02:45:44;21.43;57.95
75985;DHT22;65033;44.660;37.758;2023-07-20T02:46:49;21.40;57.96
75985;DHT22;65033;44.660;37.758;2023-07-20T02:47:53;21.39;58.09
75985;DHT22;65033;44.660;37.758;2023-07-20T02:48:56;21.39;58.11
75985;DHT22;65033;44.660;37.758;2023-07-20T02:49:59;21.36;58.21
75985;DHT22;65033;44.660;37.758;2023-07-20T02:51:06;21.36;58.21
75985;DHT22;65033;44.660;37.758;2023-07-20T02:52:10;21.36;58.29
75985;DHT22;65033;44.660;37.758;2023-07-20T02:53:13;21.35;58.14
75985;DHT22;65033;44.660;37.758;2023-07-20T02:54:17;21.35;58.33
75985;DHT22;65033;44.660;37.758;2023-07-20T02:55:20;21.37;58.36
75985;DHT22;65033;44.660;37.758;2023-07-20T02:56:23;21.37;58.31
75985;DHT22;65033;44.660;37.758;2023-07-20T02:57:27;21.40;58.24
75985;DHT22;65033;44.660;37.758;2023-07-20T02:58:30;21.44;58.23
75985;DHT22;65033;44.660;37.758;2023-07-20T02:59:34;21.48;58.23
75985;DHT22;65033;44.660;37.758;2023-07-20T03:00:37;21.54;57.93
75985;DHT22;65033;44.660;37.758;2023-07-20T03:01:40;21.57;57.94
75985;DHT22;65033;44.660;37.758;2023-07-20T03:02:47;21.63;57.61
75985;DHT22;65033;44.660;37.758;2023-07-20T03:03:52;21.67;57.76
75985;DHT22;65033;44.660;37.758;2023-07-20T03:04:55;21.78;57.41
75985;DHT22;65033;44.660;37.758;2023-07-20T03:06:00;21.81;57.18
75985;DHT22;65033;44.660;37.758;2023-07-20T03:07:06;21.85;56.81
75985;DHT22;65033;44.660;37.758;2023-07-20T03:08:14;21.89;56.72
75985;DHT22;65033;44.660;37.758;2023-07-20T03:09:18;21.93;56.74
75985;DHT22;65033;44.660;37.758;2023-07-20T03:10:21;21.98;56.52
75985;DHT22;65033;44.660;37.758;2023-07-20T03:11:25;22.03;56.52
75985;DHT22;65033;44.660;37.758;2023-07-20T03:12:28;22.06;56.49
75985;DHT22;65033;44.660;37.758;2023-07-20T03:13:31;22.08;56.54
75985;DHT22;65033;44.660;37.758;2023-07-20T03:14:35;22.11;56.52
75985;DHT22;65033;44.660;37.758;2023-07-20T03:15:39;22.14;56.52
75985;DHT22;65033;44.660;37.758;2023-07-20T03:18:30;22.23;56.45
75985;DHT22;65033;44.660;37.758;2023-07-20T03:19:34;22.26;56.36
75985;DHT22;65033;44.660;37.758;2023-07-20T03:20:38;22.28;56.23
75985;DHT22;65033;44.660;37.758;2023-07-20T03:21:42;22.35;56.32
75985;DHT22;65033;44.660;37.758;2023-07-20T03:22:48;22.37;56.23
75985;DHT22;65033;44.660;37.758;2023-07-20T03:23:52;22.38;56.32
75985;DHT22;65033;44.660;37.758;2023-07-20T03:24:56;22.39;56.27
75985;DHT22;65033;44.660;37.758;2023-07-20T03:26:01;22.41;56.23
75985;DHT22;65033;44.660;37.758;2023-07-20T03:27:06;22.42;56.51
75985;DHT22;65033;44.660;37.758;2023-07-20T03:28:11;22.44;56.29
75985;DHT22;65033;44.660;37.758;2023-07-20T03:29:14;22.49;56.22
75985;DHT22;65033;44.660;37.758;2023-07-20T03:30:20;22.52;56.09
75985;DHT22;65033;44.660;37.758;2023-07-20T03:31:24;22.57;56.10
75985;DHT22;65033;44.660;37.758;2023-07-20T03:32:28;22.61;55.97
75985;DHT22;65033;44.660;37.758;2023-07-20T03:33:32;22.66;55.91
75985;DHT22;65033;44.660;37.758;2023-07-20T03:34:37;22.71;55.74
75985;DHT22;65033;44.660;37.758;2023-07-20T03:35:42;22.78;55.65
75985;DHT22;65033;44.660;37.758;2023-07-20T03:36:48;22.82;55.68
75985;DHT22;65033;44.660;37.758;2023-07-20T03:37:53;22.87;55.59
75985;DHT22;65033;44.660;37.758;2023-07-20T03:38:57;22.92;55.54
75985;DHT22;65033;44.660;37.758;2023-07-20T03:40:01;22.96;55.42
75985;DHT22;65033;44.660;37.758;2023-07-20T03:41:04;23.00;55.35
75985;DHT22;65033;44.660;37.758;2023-07-20T03:42:11;23.07;55.21
75985;DHT22;65033;44.660;37.758;2023-07-20T03:43:15;23.13;55.15
75985;DHT22;65033;44.660;37.758;2023-07-20T03:44:18;23.17;55.95
75985;DHT22;65033;44.660;37.758;2023-07-20T03:45:22;23.18;56.14
75985;DHT22;65033;44.660;37.758;2023-07-20T03:46:31;23.20;56.21
75985;DHT22;65033;44.660;37.758;2023-07-20T03:47:35;23.24;55.08
75985;DHT22;65033;44.660;37.758;2023-07-20T03:48:38;23.29;55.15
75985;DHT22;65033;44.660;37.758;2023-07-20T03:49:47;23.37;54.97
75985;DHT22;65033;44.660;37.758;2023-07-20T03:50:52;23.42;55.08
75985;DHT22;65033;44.660;37.758;2023-07-20T03:51:55;23.46;54.63
75985;DHT22;65033;44.660;37.758;2023-07-20T03:53:00;23.52;55.23
75985;DHT22;65033;44.660;37.758;2023-07-20T03:54:04;23.58;54.46
75985;DHT22;65033;44.660;37.758;2023-07-20T03:55:09;23.62;54.91
75985;DHT22;65033;44.660;37.758;2023-07-20T03:56:12;23.67;54.27
75985;DHT22;65033;44.660;37.758;2023-07-20T03:57:16;23.72;54.26
75985;DHT22;65033;44.660;37.758;2023-07-20T03:58:30;23.80;54.68
75985;DHT22;65033;44.660;37.758;2023-07-20T03:59:36;23.84;55.30
75985;DHT22;65033;44.660;37.758;2023-07-20T04:00:42;23.86;55.20
75985;DHT22;65033;44.660;37.758;2023-07-20T04:01:46;23.90;55.05
75985;DHT22;65033;44.660;37.758;2023-07-20T04:02:50;23.91;55.61
75985;DHT22;65033;44.660;37.758;2023-07-20T04:03:54;23.94;55.34
75985;DHT22;65033;44.660;37.758;2023-07-20T04:04:57;23.98;54.38
75985;DHT22;65033;44.660;37.758;2023-07-20T04:06:00;24.04;54.59
75985;DHT22;65033;44.660;37.758;2023-07-20T04:07:04;24.09;54.56
75985;DHT22;65033;44.660;37.758;2023-07-20T04:08:10;24.18;54.43
75985;DHT22;65033;44.660;37.758;2023-07-20T04:09:14;24.21;54.53
75985;DHT22;65033;44.660;37.758;2023-07-20T04:10:18;24.27;53.80
75985;DHT22;65033;44.660;37.758;2023-07-20T04:11:21;24.32;54.12
75985;DHT22;65033;44.660;37.758;2023-07-20T04:12:24;24.39;53.85
75985;DHT22;65033;44.660;37.758;2023-07-20T04:13:28;24.43;54.16
75985;DHT22;65033;44.660;37.758;2023-07-20T04:14:31;24.47;53.86
75985;DHT22;65033;44.660;37.758;2023-07-20T04:15:35;24.54;53.40
75985;DHT22;65033;44.660;37.758;2023-07-20T04:16:38;24.60;54.25
75985;DHT22;65033;44.660;37.758;2023-07-20T04:17:41;24.64;53.75
75985;DHT22;65033;44.660;37.758;2023-07-20T04:18:45;24.69;53.74
75985;DHT22;65033;44.660;37.758;2023-07-20T04:19:48;24.73;53.48
75985;DHT22;65033;44.660;37.758;2023-07-20T04:20:51;24.76;53.62
75985;DHT22;65033;44.660;37.758;2023-07-20T04:22:02;24.84;52.97
75985;DHT22;65033;44.660;37.758;2023-07-20T04:23:06;24.89;52.83
75985;DHT22;65033;44.660;37.758;2023-07-20T04:24:11;24.95;52.59
75985;DHT22;65033;44.660;37.758;2023-07-20T04:25:14;25.02;51.95
75985;DHT22;65033;44.660;37.758;2023-07-20T04:26:18;25.07;51.86
75985;DHT22;65033;44.660;37.758;2023-07-20T04:27:21;25.13;51.69
75985;DHT22;65033;44.660;37.758;2023-07-20T04:28:28;25.18;51.61
75985;DHT22;65033;44.660;37.758;2023-07-20T04:29:32;25.23;51.20
75985;DHT22;65033;44.660;37.758;2023-07-20T04:30:36;25.30;51.44
75985;DHT22;65033;44.660;37.758;2023-07-20T04:31:40;25.36;51.68
75985;DHT22;65033;44.660;37.758;2023-07-20T04:32:43;25.40;51.11
75985;DHT22;65033;44.660;37.758;2023-07-20T04:33:49;25.45;50.59
75985;DHT22;65033;44.660;37.758;2023-07-20T04:34:53;25.50;50.66
75985;DHT22;65033;44.660;37.758;2023-07-20T04:35:57;25.56;50.30
75985;DHT22;65033;44.660;37.758;2023-07-20T04:37:05;25.61;50.22
75985;DHT22;65033;44.660;37.758;2023-07-20T04:38:08;25.66;50.03
75985;DHT22;65033;44.660;37.758;2023-07-20T04:39:13;25.72;49.61
75985;DHT22;65033;44.660;37.758;2023-07-20T04:40:24;25.77;49.43
75985;DHT22;65033;44.660;37.758;2023-07-20T04:41:27;25.82;49.29
75985;DHT22;65033;44.660;37.758;2023-07-20T04:42:32;25.90;49.40
75985;DHT22;65033;44.660;37.758;2023-07-20T04:43:35;25.92;49.33
75985;DHT22;65033;44.660;37.758;2023-07-20T04:44:39;25.96;49.45
75985;DHT22;65033;44.660;37.758;2023-07-20T04:45:43;26.07;50.05
75985;DHT22;65033;44.660;37.758;2023-07-20T04:46:47;26.12;50.43
75985;DHT22;65033;44.660;37.758;2023-07-20T04:47:50;26.19;50.43
75985;DHT22;65033;44.660;37.758;2023-07-20T04:48:54;26.27;50.30
75985;DHT22;65033;44.660;37.758;2023-07-20T04:49:58;26.33;50.42
75985;DHT22;65033;44.660;37.758;2023-07-20T04:51:02;26.38;42.21
75985;DHT22;65033;44.660;37.758;2023-07-20T04:52:06;26.45;49.47
75985;DHT22;65033;44.660;37.758;2023-07-20T04:53:10;26.50;50.23
75985;DHT22;65033;44.660;37.758;2023-07-20T04:54:15;26.56;50.41
75985;DHT22;65033;44.660;37.758;2023-07-20T04:55:20;26.62;50.40
75985;DHT22;65033;44.660;37.758;2023-07-20T04:56:24;26.67;50.43
75985;DHT22;65033;44.660;37.758;2023-07-20T04:57:29;26.75;50.34
75985;DHT22;65033;44.660;37.758;2023-07-20T04:58:33;26.81;50.39
75985;DHT22;65033;44.660;37.758;2023-07-20T04:59:36;26.86;50.62
75985;DHT22;65033;44.660;37.758;2023-07-20T05:00:39;26.91;50.65
75985;DHT22;65033;44.660;37.758;2023-07-20T05:01:44;26.96;50.47
75985;DHT22;65033;44.660;37.758;2023-07-20T05:02:48;27.02;50.42
75985;DHT22;65033;44.660;37.758;2023-07-20T05:03:51;27.09;50.40
75985;DHT22;65033;44.660;37.758;2023-07-20T05:04:56;27.12;50.14
75985;DHT22;65033;44.660;37.758;2023-07-20T05:06:00;27.13;50.16
75985;DHT22;65033;44.660;37.758;2023-07-20T05:07:03;27.12;50.38
75985;DHT22;65033;44.660;37.758;2023-07-20T05:08:07;27.15;50.27
75985;DHT22;65033;44.660;37.758;2023-07-20T05:09:10;27.12;50.10
75985;DHT22;65033;44.660;37.758;2023-07-20T05:10:15;27.10;50.50
75985;DHT22;65033;44.660;37.758;2023-07-20T05:11:18;27.10;50.71
75985;DHT22;65033;44.660;37.758;2023-07-20T05:12:23;27.05;50.83
75985;DHT22;65033;44.660;37.758;2023-07-20T05:13:26;26.98;50.76
75985;DHT22;65033;44.660;37.758;2023-07-20T05:14:30;26.95;50.88
75985;DHT22;65033;44.660;37.758;2023-07-20T05:15:34;27.00;51.13
75985;DHT22;65033;44.660;37.758;2023-07-20T05:16:39;27.07;51.15
75985;DHT22;65033;44.660;37.758;2023-07-20T05:17:43;27.09;50.63
75985;DHT22;65033;44.660;37.758;2023-07-20T05:18:46;27.11;50.58
75985;DHT22;65033;44.660;37.758;2023-07-20T05:19:50;27.17;50.66
75985;DHT22;65033;44.660;37.758;2023-07-20T05:20:54;27.24;50.33
75985;DHT22;65033;44.660;37.758;2023-07-20T05:21:58;27.25;50.40
75985;DHT22;65033;44.660;37.758;2023-07-20T05:23:01;27.29;50.03
75985;DHT22;65033;44.660;37.758;2023-07-20T05:24:06;27.38;49.58
75985;DHT22;65033;44.660;37.758;2023-07-20T05:25:10;27.43;49.33
75985;DHT22;65033;44.660;37.758;2023-07-20T05:26:16;27.46;48.52
75985;DHT22;65033;44.660;37.758;2023-07-20T05:27:19;27.51;48.81
75985;DHT22;65033;44.660;37.758;2023-07-20T05:28:23;27.52;48.99
75985;DHT22;65033;44.660;37.758;2023-07-20T05:29:27;27.53;48.22
75985;DHT22;65033;44.660;37.758;2023-07-20T05:30:30;27.56;48.28
75985;DHT22;65033;44.660;37.758;2023-07-20T05:31:34;27.61;48.51
75985;DHT22;65033;44.660;37.758;2023-07-20T05:32:37;27.71;48.60
75985;DHT22;65033;44.660;37.758;2023-07-20T05:33:40;27.73;48.62
75985;DHT22;65033;44.660;37.758;2023-07-20T05:34:45;27.75;48.75
75985;DHT22;65033;44.660;37.758;2023-07-20T05:35:48;27.76;48.57
75985;DHT22;65033;44.660;37.758;2023-07-20T05:36:52;27.80;48.96
75985;DHT22;65033;44.660;37.758;2023-07-20T05:37:55;27.82;40.91
75985;DHT22;65033;44.660;37.758;2023-07-20T05:38:59;27.86;45.16
75985;DHT22;65033;44.660;37.758;2023-07-20T05:40:02;27.87;47.01
75985;DHT22;65033;44.660;37.758;2023-07-20T05:41:06;27.90;47.86
75985;DHT22;65033;44.660;37.758;2023-07-20T05:42:14;27.96;49.43
75985;DHT22;65033;44.660;37.758;2023-07-20T05:43:18;27.97;49.47
75985;DHT22;65033;44.660;37.758;2023-07-20T05:44:21;27.99;49.11
75985;DHT22;65033;44.660;37.758;2023-07-20T05:45:25;28.08;49.69
75985;DHT22;65033;44.660;37.758;2023-07-20T05:46:28;28.14;50.81
75985;DHT22;65033;44.660;37.758;2023-07-20T05:47:35;28.19;50.96
75985;DHT22;65033;44.660;37.758;2023-07-20T05:48:39;28.23;50.59
75985;DHT22;65033;44.660;37.758;2023-07-20T05:49:43;28.24;49.58
75985;DHT22;65033;44.660;37.758;2023-07-20T05:50:46;28.26;48.59
75985;DHT22;65033;44.660;37.758;2023-07-20T05:51:49;28.18;48.96
75985;DHT22;65033;44.660;37.758;2023-07-20T05:52:53;28.12;49.29
75985;DHT22;65033;44.660;37.758;2023-07-20T05:53:56;28.05;49.54
75985;DHT22;65033;44.660;37.758;2023-07-20T05:55:00;28.09;49.27
75985;DHT22;65033;44.660;37.758;2023-07-20T05:56:04;28.11;49.17
75985;DHT22;65033;44.660;37.758;2023-07-20T05:57:08;28.13;49.26
75985;DHT22;65033;44.660;37.758;2023-07-20T05:58:13;28.17;50.06
75985;DHT22;65033;44.660;37.758;2023-07-20T05:59:16;28.20;49.88
75985;DHT22;65033;44.660;37.758;2023-07-20T06:00:20;28.28;49.66
75985;DHT22;65033;44.660;37.758;2023-07-20T06:01:30;28.34;49.50
75985;DHT22;65033;44.660;37.758;2023-07-20T06:02:33;28.38;49.13
75985;DHT22;65033;44.660;37.758;2023-07-20T06:03:37;28.44;48.70
75985;DHT22;65033;44.660;37.758;2023-07-20T06:04:40;28.40;48.44
75985;DHT22;65033;44.660;37.758;2023-07-20T06:05:44;28.39;48.70
75985;DHT22;65033;44.660;37.758;2023-07-20T06:06:47;28.43;48.70
75985;DHT22;65033;44.660;37.758;2023-07-20T06:07:51;28.47;48.46
75985;DHT22;65033;44.660;37.758;2023-07-20T06:08:54;28.52;48.81
75985;DHT22;65033;44.660;37.758;2023-07-20T06:09:58;28.48;48.15
75985;DHT22;65033;44.660;37.758;2023-07-20T06:11:02;28.49;47.82
75985;DHT22;65033;44.660;37.758;2023-07-20T06:12:06;28.47;48.07
75985;DHT22;65033;44.660;37.758;2023-07-20T06:13:11;28.52;47.86
75985;DHT22;65033;44.660;37.758;2023-07-20T06:14:15;28.49;48.50
75985;DHT22;65033;44.660;37.758;2023-07-20T06:15:25;28.49;48.83
75985;DHT22;65033;44.660;37.758;2023-07-20T06:16:29;28.52;48.63
75985;DHT22;65033;44.660;37.758;2023-07-20T06:17:32;28.49;48.53
75985;DHT22;65033;44.660;37.758;2023-07-20T06:18:36;28.54;48.82
75985;DHT22;65033;44.660;37.758;2023-07-20T06:19:39;28.56;48.79
75985;DHT22;65033;44.660;37.758;2023-07-20T06:20:44;28.60;48.92
75985;DHT22;65033;44.660;37.758;2023-07-20T06:21:51;28.65;48.68
75985;DHT22;65033;44.660;37.758;2023-07-20T06:22:58;28.60;44.91
75985;DHT22;65033;44.660;37.758;2023-07-20T06:24:01;28.61;48.34
75985;DHT22;65033;44.660;37.758;2023-07-20T06:25:06;28.65;48.44
75985;DHT22;65033;44.660;37.758;2023-07-20T06:26:09;28.62;48.71
75985;DHT22;65033;44.660;37.758;2023-07-20T06:27:13;28.67;48.72
75985;DHT22;65033;44.660;37.758;2023-07-20T06:28:18;28.70;49.02
75985;DHT22;65033;44.660;37.758;2023-07-20T06:29:22;28.74;49.47
75985;DHT22;65033;44.660;37.758;2023-07-20T06:30:25;28.80;49.03
75985;DHT22;65033;44.660;37.758;2023-07-20T06:31:29;28.80;48.66
75985;DHT22;65033;44.660;37.758;2023-07-20T06:32:32;28.84;48.66
75985;DHT22;65033;44.660;37.758;2023-07-20T06:33:36;28.85;48.73
75985;DHT22;65033;44.660;37.758;2023-07-20T06:34:39;28.77;49.13
75985;DHT22;65033;44.660;37.758;2023-07-20T06:35:43;28.80;48.99
75985;DHT22;65033;44.660;37.758;2023-07-20T06:36:46;28.82;49.00
75985;DHT22;65033;44.660;37.758;2023-07-20T06:37:49;28.79;49.30
75985;DHT22;65033;44.660;37.758;2023-07-20T06:38:53;28.73;49.12
75985;DHT22;65033;44.660;37.758;2023-07-20T06:39:59;28.71;49.36
75985;DHT22;65033;44.660;37.758;2023-07-20T06:41:05;28.67;49.54
75985;DHT22;65033;44.660;37.758;2023-07-20T06:42:11;28.67;49.33
75985;DHT22;65033;44.660;37.758;2023-07-20T06:43:15;28.61;49.46
75985;DHT22;65033;44.660;37.758;2023-07-20T06:44:23;28.62;49.64
75985;DHT22;65033;44.660;37.758;2023-07-20T06:45:26;28.57;49.78